CYQH

Details ICAO CYQH (YQH)
Name WATSON LAKE
Region Canada
Timezone America/Whitehorse (UTC-7.0)
Plans Departing 13
Arriving 14
Stats Elevation 2,255 ft / 687 m (AMSL)
Location 60.117502° -128.820560°
Runways 1
Magnetic Variation 19.649° E
Sunrise 2018-05-26 11:34:21 UTC / 2018-05-26 04:34:21 Local
Sunset 2018-05-27 05:33:15 UTC / 2018-05-26 22:33:15 Local
Advertisement - Login to hide

Runways

ID Width Length Bearing (true) Bearing (mag) Surface Threshold Offset Overrun Length
08 150 ft / 46 m 5,462 ft / 1,665 m 109.49° 89.84° Asphalt 0 ft / 0 m 0 ft / 0 m
26 150 ft / 46 m 5,462 ft / 1,665 m 289.51° 269.86° Asphalt 0 ft / 0 m 0 ft / 0 m

Map

Weather


0- 5 10 15 20 25 30 35+ Temperature / ° C

Clouds and Precipitation
Forecast for 2018-05-26 12:00 UTC. Updated 3 hours ago

Ground ~20,000 ft ~40,000 ft Winds

METAR

CYQH 261400Z 00000KT 30SM FEW120 04/01 A2971 RMK AC2 SLP083

TAF

TAF CYQH 261138Z 2612/2624 VRB03KT P6SM FEW120 FM262100 24008KT P6SM BKN070 RMK NXT FCST BY 261800Z

Frequencies

Unicom 122.10 MHz MANDATORY FREQ
Warning: Do not use this data for real-world aviation or navigation. No guarantee of current accuracy is given.